createdAt,value
2023-01-17T00:02:02.339Z,92548.80
2023-01-17T00:04:47.780Z,92546.80
2023-01-17T00:07:36.707Z,92550.20
2023-01-17T00:10:17.348Z,92550.40
2023-01-17T00:12:57.324Z,92546.80
2023-01-17T00:15:25.749Z,92556.40
2023-01-17T00:17:53.468Z,92559.60
2023-01-17T00:20:43.191Z,92565.00
2023-01-17T00:23:38.330Z,92572.00
2023-01-17T00:26:14.990Z,92570.60
2023-01-17T00:28:43.850Z,92574.60
2023-01-17T00:31:13.334Z,92578.20
2023-01-17T00:33:39.998Z,92578.00
2023-01-17T00:36:08.580Z,92585.00
2023-01-17T00:38:38.440Z,92579.60
2023-01-17T00:41:12.309Z,92585.20
2023-01-17T00:43:57.983Z,92591.80
2023-01-17T00:46:43.608Z,92593.00
2023-01-17T00:49:28.860Z,92595.20
2023-01-17T00:52:14.359Z,92600.00
2023-01-17T00:54:59.841Z,92605.20
2023-01-17T00:57:45.533Z,92617.40
2023-01-17T01:00:31.702Z,92618.60
2023-01-17T01:03:17.123Z,92624.80
2023-01-17T01:06:02.221Z,92624.60
2023-01-17T01:08:49.466Z,92621.80
2023-01-17T01:11:38.649Z,92632.00
2023-01-17T01:14:26.477Z,92626.40
2023-01-17T01:17:11.836Z,92639.20
2023-01-17T01:19:57.008Z,92641.80
2023-01-17T01:22:42.798Z,92640.80
2023-01-17T01:25:28.218Z,92637.20
2023-01-17T01:28:25.975Z,92638.00
2023-01-17T01:31:11.665Z,92633.60
2023-01-17T01:33:38.451Z,92631.00
2023-01-17T01:36:08.976Z,92643.00
2023-01-17T01:38:35.973Z,92636.40
2023-01-17T01:41:02.922Z,92631.80
2023-01-17T01:43:53.695Z,92632.40
2023-01-17T01:46:42.674Z,92632.80
2023-01-17T01:49:20.994Z,92638.20
2023-01-17T01:51:55.430Z,92634.00
2023-01-17T01:54:53.075Z,92637.00
2023-01-17T01:57:24.525Z,92633.00
2023-01-17T02:00:00.190Z,92645.20
2023-01-17T02:02:29.793Z,92644.00
2023-01-17T02:04:58.869Z,92634.80
2023-01-17T02:07:43.333Z,92631.60
2023-01-17T02:10:10.944Z,92636.00
2023-01-17T02:12:37.641Z,92632.00
2023-01-17T02:15:07.653Z,92640.40
2023-01-17T02:18:08.651Z,92638.60
2023-01-17T02:21:30.937Z,92635.40
2023-01-17T02:24:40.984Z,92637.40
2023-01-17T02:27:27.342Z,92640.40
2023-01-17T02:30:32.902Z,92636.40
2023-01-17T02:33:34.267Z,92638.80
2023-01-17T02:36:29.855Z,92634.00
2023-01-17T02:39:07.653Z,92632.80
2023-01-17T02:41:42.903Z,92641.40
2023-01-17T02:44:15.500Z,92638.40
2023-01-17T02:46:53.116Z,92637.40
2023-01-17T02:49:25.295Z,92634.80
2023-01-17T02:51:58.039Z,92634.40
2023-01-17T02:54:57.151Z,92636.60
2023-01-17T02:57:47.840Z,92635.40
2023-01-17T03:00:44.935Z,92637.20
2023-01-17T03:03:33.590Z,92635.40
2023-01-17T03:06:11.778Z,92642.40
2023-01-17T03:08:42.544Z,92638.60
2023-01-17T03:11:10.429Z,92641.60
2023-01-17T03:13:37.361Z,92647.20
2023-01-17T03:16:18.693Z,92639.60
2023-01-17T03:18:45.648Z,92644.80
2023-01-17T03:21:12.349Z,92642.00
2023-01-17T03:23:39.341Z,92645.00
2023-01-17T03:26:06.494Z,92647.20
2023-01-17T03:28:34.336Z,92650.00
2023-01-17T03:31:00.947Z,92646.20
2023-01-17T03:33:27.563Z,92643.40
2023-01-17T03:35:57.947Z,92646.80
2023-01-17T03:38:29.308Z,92647.60
2023-01-17T03:40:55.906Z,92648.00
2023-01-17T03:43:22.475Z,92647.60
2023-01-17T03:45:51.994Z,92644.60
2023-01-17T03:48:18.750Z,92650.00
2023-01-17T03:50:45.308Z,92652.40
2023-01-17T03:53:11.877Z,92651.00
2023-01-17T03:55:38.526Z,92648.20
2023-01-17T03:58:05.102Z,92647.60
2023-01-17T04:00:31.668Z,92652.40
2023-01-17T04:02:58.455Z,92646.00
2023-01-17T04:05:25.068Z,92654.00
2023-01-17T04:07:51.851Z,92658.00
2023-01-17T04:10:18.769Z,92664.40
2023-01-17T04:12:45.362Z,92654.00
2023-01-17T04:15:12.021Z,92649.80
2023-01-17T04:17:38.810Z,92647.20
2023-01-17T04:20:06.339Z,92644.40
2023-01-17T04:22:32.953Z,92649.00
2023-01-17T04:24:59.600Z,92649.00
2023-01-17T04:27:26.523Z,92648.60
2023-01-17T04:29:53.092Z,92645.20
2023-01-17T04:32:19.694Z,92649.40
2023-01-17T04:34:46.354Z,92649.00
2023-01-17T04:37:13.013Z,92652.40
2023-01-17T04:39:39.703Z,92654.60
2023-01-17T04:42:06.331Z,92655.40
2023-01-17T04:44:32.972Z,92651.20
2023-01-17T04:47:02.084Z,92656.60
2023-01-17T04:49:28.603Z,92660.60
2023-01-17T04:51:55.194Z,92654.00
2023-01-17T04:54:21.752Z,92650.80
2023-01-17T04:56:49.054Z,92646.60
2023-01-17T04:59:15.693Z,92642.80
2023-01-17T05:01:42.906Z,92645.80
2023-01-17T05:04:09.565Z,92645.40
2023-01-17T05:06:36.115Z,92643.80
2023-01-17T05:09:02.962Z,92643.20
2023-01-17T05:11:29.558Z,92644.40
2023-01-17T05:13:56.214Z,92648.80
2023-01-17T05:16:22.800Z,92649.60
2023-01-17T05:18:53.619Z,92652.40
2023-01-17T05:21:23.455Z,92659.20
2023-01-17T05:23:50.836Z,92669.20
2023-01-17T05:26:17.646Z,92674.20
2023-01-17T05:28:44.228Z,92675.00
2023-01-17T05:31:11.242Z,92677.80
2023-01-17T05:33:38.024Z,92674.00
2023-01-17T05:36:05.020Z,92683.00
2023-01-17T05:38:31.713Z,92686.60
2023-01-17T05:41:02.110Z,92687.60
2023-01-17T05:43:29.164Z,92687.60
2023-01-17T05:45:55.868Z,92692.80
2023-01-17T05:48:22.613Z,92697.80
2023-01-17T05:50:49.244Z,92697.20
2023-01-17T05:53:17.073Z,92697.80
2023-01-17T05:55:44.158Z,92698.80
2023-01-17T05:58:17.309Z,92697.40
2023-01-17T06:00:45.079Z,92705.20
2023-01-17T06:03:12.873Z,92703.40
2023-01-17T06:05:40.351Z,92704.20
2023-01-17T06:08:07.538Z,92706.40
2023-01-17T06:10:34.579Z,92700.80
2023-01-17T06:13:10.524Z,92704.80
2023-01-17T06:15:38.544Z,92703.80
2023-01-17T06:18:11.562Z,92701.60
2023-01-17T06:20:39.614Z,92696.80
2023-01-17T06:23:10.344Z,92692.00
2023-01-17T06:25:39.552Z,92692.40
2023-01-17T06:28:07.750Z,92691.20
2023-01-17T06:30:34.634Z,92683.40
2023-01-17T06:33:01.532Z,92681.80
2023-01-17T06:35:28.725Z,92682.20
2023-01-17T06:37:58.164Z,92681.00
2023-01-17T06:40:26.199Z,92682.00
2023-01-17T06:42:53.258Z,92684.00
2023-01-17T06:45:20.699Z,92679.60
2023-01-17T06:47:47.308Z,92682.60
2023-01-17T06:50:15.685Z,92685.20
2023-01-17T06:52:42.929Z,92686.40
2023-01-17T06:55:10.261Z,92686.60
2023-01-17T06:57:36.936Z,92689.40
2023-01-17T07:00:04.985Z,92691.60
2023-01-17T07:02:31.590Z,92687.60
2023-01-17T07:04:58.130Z,92686.00
2023-01-17T07:07:24.968Z,92686.20
2023-01-17T07:09:51.622Z,92686.60
2023-01-17T07:12:18.207Z,92681.40
2023-01-17T07:14:44.888Z,92677.00
2023-01-17T07:17:11.475Z,92675.80
2023-01-17T07:19:38.012Z,92671.60
2023-01-17T07:22:04.627Z,92674.00
2023-01-17T07:24:33.014Z,92676.20
2023-01-17T07:26:59.652Z,92673.20
2023-01-17T07:29:26.242Z,92676.60
2023-01-17T07:31:52.807Z,92676.20
2023-01-17T07:34:19.358Z,92677.60
2023-01-17T07:36:48.111Z,92681.40
2023-01-17T07:39:14.809Z,92682.20
2023-01-17T07:41:42.919Z,92678.20
2023-01-17T07:44:12.044Z,92674.80
2023-01-17T07:46:39.072Z,92676.40
2023-01-17T07:49:06.071Z,92675.00
2023-01-17T07:51:32.655Z,92671.40
2023-01-17T07:53:59.221Z,92665.00
2023-01-17T07:56:25.929Z,92660.40
2023-01-17T07:58:52.526Z,92657.80
2023-01-17T08:01:19.233Z,92647.40
2023-01-17T08:03:46.030Z,92646.80
2023-01-17T08:06:22.056Z,92640.20
2023-01-17T08:08:48.891Z,92640.00
2023-01-17T08:11:16.509Z,92647.20
2023-01-17T08:13:43.080Z,92646.20
2023-01-17T08:16:12.234Z,92648.00
2023-01-17T08:18:39.740Z,92637.60
2023-01-17T08:21:14.297Z,92639.80
2023-01-17T08:23:41.109Z,92635.60
2023-01-17T08:26:07.796Z,92632.20
2023-01-17T08:28:34.556Z,92630.40
2023-01-17T08:31:09.475Z,92636.60
2023-01-17T08:33:36.468Z,92635.60
2023-01-17T08:36:03.253Z,92626.60
2023-01-17T08:38:29.846Z,92624.80
2023-01-17T08:41:01.710Z,92622.00
2023-01-17T08:43:28.731Z,92621.60
2023-01-17T08:45:56.144Z,92620.00
2023-01-17T08:48:24.159Z,92616.20
2023-01-17T08:50:50.962Z,92610.40
2023-01-17T08:53:21.514Z,92608.40
2023-01-17T08:55:48.188Z,92607.00
2023-01-17T08:58:14.951Z,92601.00
2023-01-17T09:00:41.648Z,92599.60
2023-01-17T09:03:14.267Z,92594.20
2023-01-17T09:05:41.474Z,92599.00
2023-01-17T09:08:08.820Z,92603.00
2023-01-17T09:10:35.674Z,92611.60
2023-01-17T09:13:02.651Z,92618.40
2023-01-17T09:15:29.193Z,92616.60
2023-01-17T09:17:56.755Z,92617.00
2023-01-17T09:20:24.925Z,92612.40
2023-01-17T09:22:51.733Z,92610.40
2023-01-17T09:25:18.515Z,92611.40
2023-01-17T09:27:47.067Z,92619.20
2023-01-17T09:30:14.577Z,92619.80
2023-01-17T09:32:41.969Z,92614.00
2023-01-17T09:35:09.204Z,92609.80
2023-01-17T09:37:35.816Z,92604.60
2023-01-17T09:40:02.508Z,92591.40
2023-01-17T09:42:39.897Z,92591.00
2023-01-17T09:45:17.754Z,92587.80
2023-01-17T09:47:48.636Z,92585.60
2023-01-17T09:50:39.284Z,92583.60
2023-01-17T09:53:13.603Z,92573.00
2023-01-17T09:55:48.702Z,92568.20
2023-01-17T09:58:26.264Z,92559.20
2023-01-17T10:01:07.027Z,92542.20
2023-01-17T10:04:08.571Z,92521.80
2023-01-17T10:06:59.007Z,92504.80
2023-01-17T10:10:07.823Z,92488.60
2023-01-17T10:13:01.622Z,92481.40
2023-01-17T10:16:11.749Z,92478.00
2023-01-17T10:19:00.798Z,92478.40
2023-01-17T10:21:40.797Z,92467.60
2023-01-17T10:24:54.638Z,92455.20
2023-01-17T10:27:48.297Z,92459.40
2023-01-17T10:31:08.539Z,92452.40
2023-01-17T10:33:45.308Z,92448.80
2023-01-17T10:36:23.675Z,92450.60
2023-01-17T10:38:55.509Z,92455.80
2023-01-17T10:41:28.239Z,92452.00
2023-01-17T10:44:26.068Z,92448.60
2023-01-17T10:47:10.978Z,92449.00
2023-01-17T10:49:49.076Z,92449.80
2023-01-17T10:52:46.800Z,92445.20
2023-01-17T10:55:53.734Z,92440.20
2023-01-17T10:58:20.384Z,92444.40
2023-01-17T11:01:01.352Z,92440.60
2023-01-17T11:03:28.817Z,92435.40
2023-01-17T11:06:23.911Z,92434.80
2023-01-17T11:08:54.587Z,92426.80
2023-01-17T11:11:25.805Z,92422.40
2023-01-17T11:13:54.487Z,92414.80
2023-01-17T11:16:26.704Z,92412.40
2023-01-17T11:19:16.171Z,92408.80
2023-01-17T11:21:57.685Z,92405.80
2023-01-17T11:24:33.806Z,92398.60
2023-01-17T11:27:00.472Z,92404.20
2023-01-17T11:29:26.943Z,92401.00
2023-01-17T11:31:56.295Z,92393.20
2023-01-17T11:34:26.479Z,92393.80
2023-01-17T11:37:29.318Z,92393.80
2023-01-17T11:40:31.708Z,92395.00
2023-01-17T11:43:09.155Z,92398.40
2023-01-17T11:45:36.010Z,92399.80
2023-01-17T11:48:08.715Z,92398.00
2023-01-17T11:50:41.988Z,92396.20
2023-01-17T11:53:33.842Z,92395.00
2023-01-17T11:56:12.207Z,92393.60
2023-01-17T11:58:42.277Z,92382.60
2023-01-17T12:01:34.890Z,92375.20
2023-01-17T12:04:27.783Z,92371.40
2023-01-17T12:07:16.949Z,92366.60
2023-01-17T12:09:57.337Z,92361.40
2023-01-17T12:13:13.466Z,92361.00
2023-01-17T12:16:26.568Z,92354.80
2023-01-17T12:19:06.148Z,92347.80
2023-01-17T12:22:13.059Z,92336.60
2023-01-17T12:24:48.781Z,92329.80
2023-01-17T12:27:49.360Z,92320.20
2023-01-17T12:30:34.373Z,92310.80
2023-01-17T12:33:10.023Z,92306.80
2023-01-17T12:36:06.572Z,92307.60
2023-01-17T12:38:39.725Z,92303.00
2023-01-17T12:41:11.407Z,92297.60
2023-01-17T12:43:43.695Z,92289.00
2023-01-17T12:46:43.268Z,92284.80
2023-01-17T12:49:33.539Z,92273.80
2023-01-17T12:52:10.944Z,92275.60
2023-01-17T12:54:45.695Z,92270.80
2023-01-17T12:57:33.885Z,92269.00
2023-01-17T13:00:23.055Z,92258.80
2023-01-17T13:03:27.761Z,92257.20
2023-01-17T13:05:57.549Z,92257.00
2023-01-17T13:08:40.498Z,92249.40
2023-01-17T13:11:41.067Z,92246.00
2023-01-17T13:14:10.861Z,92233.20
2023-01-17T13:17:00.444Z,92234.80
2023-01-17T13:19:50.687Z,92235.40
2023-01-17T13:22:21.853Z,92237.40
2023-01-17T13:25:13.529Z,92233.40
2023-01-17T13:28:00.541Z,92238.60
2023-01-17T13:30:43.290Z,92234.80
2023-01-17T13:33:41.350Z,92233.20
2023-01-17T13:36:39.210Z,92228.60
2023-01-17T13:39:30.149Z,92220.00
2023-01-17T13:42:34.429Z,92216.80
2023-01-17T13:45:09.203Z,92225.00
2023-01-17T13:47:41.449Z,92227.20
2023-01-17T13:50:36.851Z,92223.80
2023-01-17T13:53:28.697Z,92217.20
2023-01-17T13:56:30.204Z,92220.80
2023-01-17T13:59:03.901Z,92212.00
2023-01-17T14:01:38.626Z,92206.60
2023-01-17T14:04:09.085Z,92197.20
2023-01-17T14:06:35.805Z,92192.40
2023-01-17T14:09:25.914Z,92184.80
2023-01-17T14:12:33.036Z,92185.60
2023-01-17T14:15:01.459Z,92191.00
2023-01-17T14:17:58.805Z,92185.80
2023-01-17T14:20:25.438Z,92173.20
2023-01-17T14:23:00.470Z,92178.80
2023-01-17T14:25:45.498Z,92177.40
2023-01-17T14:28:29.542Z,92167.80
2023-01-17T14:31:00.100Z,92166.20
2023-01-17T14:33:31.091Z,92161.80
2023-01-17T14:36:04.487Z,92164.00
2023-01-17T14:38:33.690Z,92152.00
2023-01-17T14:41:07.579Z,92144.80
2023-01-17T14:43:39.251Z,92132.80
2023-01-17T14:46:15.798Z,92129.80
2023-01-17T14:48:42.603Z,92119.00
2023-01-17T14:51:19.022Z,92121.40
2023-01-17T14:54:02.466Z,92115.60
2023-01-17T14:56:31.140Z,92125.60
2023-01-17T14:59:24.171Z,92123.80
2023-01-17T15:02:07.110Z,92123.20
2023-01-17T15:04:39.665Z,92128.40
2023-01-17T15:07:07.639Z,92128.20
2023-01-17T15:09:37.970Z,92113.20
2023-01-17T15:12:09.220Z,92111.20
2023-01-17T15:14:42.807Z,92113.20
2023-01-17T15:17:17.768Z,92116.20
2023-01-17T15:19:54.184Z,92116.80
2023-01-17T15:22:21.336Z,92116.40
2023-01-17T15:24:49.446Z,92118.40
2023-01-17T15:27:17.112Z,92121.80
2023-01-17T15:29:46.003Z,92116.20
2023-01-17T15:32:24.322Z,92110.20
2023-01-17T15:34:52.420Z,92109.20
2023-01-17T15:37:37.066Z,92109.40
2023-01-17T15:40:23.077Z,92106.20
2023-01-17T15:42:58.514Z,92094.20
2023-01-17T15:45:32.409Z,92087.80
2023-01-17T15:48:40.583Z,92087.20
2023-01-17T15:51:10.190Z,92083.60
2023-01-17T15:53:40.525Z,92083.00
2023-01-17T15:56:33.679Z,92078.80
2023-01-17T15:59:29.974Z,92069.60
2023-01-17T16:01:59.377Z,92066.20
2023-01-17T16:04:35.141Z,92065.00
2023-01-17T16:07:23.122Z,92064.80
2023-01-17T16:09:49.941Z,92073.80
2023-01-17T16:12:16.568Z,92072.00
2023-01-17T16:14:59.515Z,92073.40
2023-01-17T16:17:32.583Z,92076.20
2023-01-17T16:19:59.560Z,92079.20
2023-01-17T16:22:27.044Z,92077.80
2023-01-17T16:24:56.642Z,92077.20
2023-01-17T16:27:23.421Z,92075.20
2023-01-17T16:29:50.002Z,92072.00
2023-01-17T16:32:16.592Z,92075.60
2023-01-17T16:34:43.149Z,92078.40
2023-01-17T16:37:11.136Z,92073.20
2023-01-17T16:39:37.812Z,92075.80
2023-01-17T16:42:08.385Z,92077.20
2023-01-17T16:44:37.285Z,92080.00
2023-01-17T16:47:04.019Z,92081.60
2023-01-17T16:49:32.909Z,92089.40
2023-01-17T16:51:59.701Z,92089.00
2023-01-17T16:54:27.322Z,92091.00
2023-01-17T16:56:54.073Z,92093.20
2023-01-17T16:59:20.786Z,92094.40
2023-01-17T17:01:49.428Z,92099.60
2023-01-17T17:04:16.441Z,92102.40
2023-01-17T17:06:43.043Z,92103.80
2023-01-17T17:09:09.616Z,92105.80
2023-01-17T17:11:36.207Z,92108.80
2023-01-17T17:14:03.526Z,92115.20
2023-01-17T17:16:30.970Z,92116.40
2023-01-17T17:19:01.105Z,92120.60
2023-01-17T17:21:29.620Z,92128.80
2023-01-17T17:23:59.436Z,92125.40
2023-01-17T17:26:31.028Z,92128.60
2023-01-17T17:28:58.379Z,92137.00
2023-01-17T17:31:25.170Z,92140.00
2023-01-17T17:33:52.039Z,92145.60
2023-01-17T17:36:19.156Z,92153.80
2023-01-17T17:38:51.280Z,92158.40
2023-01-17T17:41:30.822Z,92169.80
2023-01-17T17:43:58.165Z,92176.60
2023-01-17T17:46:26.741Z,92179.40
2023-01-17T17:48:53.605Z,92174.60
2023-01-17T17:51:40.663Z,92179.20
2023-01-17T17:54:11.612Z,92183.80
2023-01-17T17:56:38.803Z,92183.00
2023-01-17T17:59:08.998Z,92188.40
2023-01-17T18:01:38.399Z,92179.60
2023-01-17T18:04:07.591Z,92159.60
2023-01-17T18:06:35.896Z,92147.40
2023-01-17T18:09:04.912Z,92144.00
2023-01-17T18:11:32.174Z,92141.00
2023-01-17T18:14:01.988Z,92134.40
2023-01-17T18:16:43.651Z,92148.20
2023-01-17T18:19:25.639Z,92159.00
2023-01-17T18:21:53.312Z,92165.60
2023-01-17T18:24:23.596Z,92165.80
2023-01-17T18:26:55.943Z,92167.80
2023-01-17T18:29:24.389Z,92168.00
2023-01-17T18:31:53.091Z,92169.80
2023-01-17T18:34:27.056Z,92166.80
2023-01-17T18:36:53.778Z,92164.20
2023-01-17T18:39:29.378Z,92167.80
2023-01-17T18:41:56.419Z,92170.80
2023-01-17T18:44:23.886Z,92177.80
2023-01-17T18:46:54.049Z,92188.60
2023-01-17T18:49:21.131Z,92201.60
2023-01-17T18:51:51.097Z,92211.20
2023-01-17T18:54:19.916Z,92214.60
2023-01-17T18:56:47.153Z,92215.80
2023-01-17T18:59:18.340Z,92216.60
2023-01-17T19:01:45.904Z,92215.80
2023-01-17T19:04:14.698Z,92226.40
2023-01-17T19:06:45.613Z,92235.60
2023-01-17T19:09:14.708Z,92243.00
2023-01-17T19:11:44.665Z,92244.20
2023-01-17T19:14:12.715Z,92255.20
2023-01-17T19:16:41.942Z,92259.40
2023-01-17T19:19:12.639Z,92260.60
2023-01-17T19:21:39.689Z,92270.40
2023-01-17T19:24:07.079Z,92269.80
2023-01-17T19:26:34.199Z,92267.80
2023-01-17T19:29:03.799Z,92260.20
2023-01-17T19:31:34.609Z,92263.20
2023-01-17T19:34:01.792Z,92257.40
2023-01-17T19:36:34.512Z,92262.60
2023-01-17T19:39:05.248Z,92269.20
2023-01-17T19:41:36.553Z,92271.80
2023-01-17T19:44:09.060Z,92270.40
2023-01-17T19:46:36.889Z,92278.60
2023-01-17T19:49:06.263Z,92282.20
2023-01-17T19:51:33.162Z,92276.20
2023-01-17T19:54:01.540Z,92278.20
2023-01-17T19:56:29.025Z,92270.60
2023-01-17T19:59:00.585Z,92268.60
2023-01-17T20:01:31.316Z,92267.40
2023-01-17T20:04:00.249Z,92259.60
2023-01-17T20:06:31.598Z,92268.40
2023-01-17T20:08:58.947Z,92268.00
2023-01-17T20:11:27.918Z,92277.60
2023-01-17T20:13:57.644Z,92267.20
2023-01-17T20:16:26.702Z,92260.80
2023-01-17T20:18:53.602Z,92257.40
2023-01-17T20:21:26.343Z,92252.00
2023-01-17T20:23:54.989Z,92249.60
2023-01-17T20:26:29.042Z,92257.20
2023-01-17T20:28:55.729Z,92255.20
2023-01-17T20:31:25.441Z,92253.40
2023-01-17T20:33:56.246Z,92261.60
2023-01-17T20:36:26.492Z,92264.60
2023-01-17T20:38:54.489Z,92270.00
2023-01-17T20:41:43.357Z,92270.00
2023-01-17T20:44:15.035Z,92274.40
2023-01-17T20:46:42.674Z,92277.00
2023-01-17T20:49:16.439Z,92277.40
2023-01-17T20:51:45.395Z,92275.40
2023-01-17T20:54:16.171Z,92276.60
2023-01-17T20:56:43.308Z,92278.40
2023-01-17T20:59:16.490Z,92279.00
2023-01-17T21:01:44.501Z,92276.20
2023-01-17T21:04:12.023Z,92275.40
2023-01-17T21:06:41.081Z,92273.60
2023-01-17T21:09:12.172Z,92275.40
2023-01-17T21:11:38.902Z,92271.60
2023-01-17T21:14:06.705Z,92269.60
2023-01-17T21:16:34.998Z,92271.80
2023-01-17T21:19:01.874Z,92275.60
2023-01-17T21:21:29.596Z,92273.40
2023-01-17T21:23:59.340Z,92275.80
2023-01-17T21:26:28.386Z,92278.40
2023-01-17T21:28:55.927Z,92276.80
2023-01-17T21:31:26.368Z,92284.80
2023-01-17T21:34:00.829Z,92286.60
2023-01-17T21:36:32.699Z,92287.20
2023-01-17T21:39:04.728Z,92284.20
2023-01-17T21:41:41.136Z,92285.40
2023-01-17T21:44:23.170Z,92286.20
2023-01-17T21:46:55.104Z,92284.80
2023-01-17T21:49:22.705Z,92287.60
2023-01-17T21:51:55.299Z,92290.20
2023-01-17T21:54:46.873Z,92288.60
2023-01-17T21:57:40.560Z,92291.80
2023-01-17T22:00:14.472Z,92290.20
2023-01-17T22:02:47.079Z,92292.00
2023-01-17T22:05:16.423Z,92292.20
2023-01-17T22:08:03.878Z,92290.80
2023-01-17T22:10:30.593Z,92293.60
2023-01-17T22:12:57.266Z,92294.40
2023-01-17T22:15:23.928Z,92299.60
2023-01-17T22:17:50.536Z,92303.80
2023-01-17T22:20:18.182Z,92304.00
2023-01-17T22:22:47.546Z,92310.80
2023-01-17T22:25:14.771Z,92317.00
2023-01-17T22:27:41.325Z,92320.00
2023-01-17T22:30:12.965Z,92319.00
2023-01-17T22:32:40.422Z,92320.80
2023-01-17T22:35:08.327Z,92319.40
2023-01-17T22:37:35.364Z,92324.80
2023-01-17T22:40:04.860Z,92322.40
2023-01-17T22:42:34.754Z,92323.60
2023-01-17T22:45:01.680Z,92326.60
2023-01-17T22:47:28.396Z,92325.20
2023-01-17T22:49:55.024Z,92324.60
2023-01-17T22:52:21.642Z,92320.80
2023-01-17T22:54:48.956Z,92319.40
2023-01-17T22:57:15.520Z,92314.40
2023-01-17T22:59:42.059Z,92314.60
2023-01-17T23:02:08.677Z,92313.40
2023-01-17T23:04:35.309Z,92317.20
2023-01-17T23:07:02.041Z,92317.20
2023-01-17T23:09:28.742Z,92319.00
2023-01-17T23:11:56.396Z,92319.40
2023-01-17T23:14:30.787Z,92322.80
2023-01-17T23:17:19.752Z,92326.40
2023-01-17T23:19:49.549Z,92330.00
2023-01-17T23:22:22.819Z,92332.60
2023-01-17T23:25:03.625Z,92331.80
2023-01-17T23:27:58.057Z,92330.00
2023-01-17T23:30:39.165Z,92331.40
2023-01-17T23:33:10.143Z,92333.00
2023-01-17T23:35:42.083Z,92340.80
2023-01-17T23:38:34.550Z,92340.20
2023-01-17T23:41:26.514Z,92334.80
2023-01-17T23:43:56.036Z,92338.00
2023-01-17T23:46:24.589Z,92340.40
2023-01-17T23:48:51.735Z,92334.80
2023-01-17T23:51:18.785Z,92337.20
2023-01-17T23:53:45.284Z,92339.60
2023-01-17T23:56:19.675Z,92340.20
2023-01-17T23:58:46.706Z,92346.00
